createdAt,value
2023-03-03T00:02:14.526Z,101738.77
2023-03-03T00:04:42.781Z,101736.56
2023-03-03T00:07:12.200Z,101734.52
2023-03-03T00:09:41.071Z,101730.67
2023-03-03T00:12:25.756Z,101727.59
2023-03-03T00:14:54.073Z,101725.95
2023-03-03T00:17:28.247Z,101723.77
2023-03-03T00:19:56.475Z,101719.30
2023-03-03T00:22:35.724Z,101712.22
2023-03-03T00:25:19.859Z,101710.73
2023-03-03T00:27:47.917Z,101702.42
2023-03-03T00:30:27.682Z,101698.39
2023-03-03T00:32:56.120Z,101695.27
2023-03-03T00:35:29.005Z,101691.95
2023-03-03T00:38:02.083Z,101689.93
2023-03-03T00:40:37.376Z,101691.45
2023-03-03T00:43:25.355Z,101686.65
2023-03-03T00:45:57.016Z,101685.38
2023-03-03T00:48:31.149Z,101681.98
2023-03-03T00:51:00.618Z,101677.27
2023-03-03T00:53:30.366Z,101677.50
2023-03-03T00:55:58.780Z,101673.63
2023-03-03T00:58:27.657Z,101667.92
2023-03-03T01:00:59.131Z,101667.19
2023-03-03T01:03:50.352Z,101662.31
2023-03-03T01:06:18.843Z,101660.67
2023-03-03T01:08:47.277Z,101657.31
2023-03-03T01:11:22.161Z,101654.94
2023-03-03T01:13:51.643Z,101648.71
2023-03-03T01:16:26.627Z,101649.63
2023-03-03T01:18:58.303Z,101649.91
2023-03-03T01:21:26.604Z,101647.12
2023-03-03T01:23:58.163Z,101646.25
2023-03-03T01:26:28.016Z,101642.09
2023-03-03T01:28:57.567Z,101638.13
2023-03-03T01:31:26.273Z,101636.15
2023-03-03T01:33:55.422Z,101634.02
2023-03-03T01:36:25.602Z,101635.79
2023-03-03T01:38:56.494Z,101631.48
2023-03-03T01:41:29.170Z,101627.38
2023-03-03T01:43:57.601Z,101624.27
2023-03-03T01:46:36.572Z,101624.91
2023-03-03T01:49:13.181Z,101621.10
2023-03-03T01:51:55.743Z,101616.84
2023-03-03T01:54:28.548Z,101615.58
2023-03-03T01:57:01.490Z,101613.77
2023-03-03T01:59:32.584Z,101613.30
2023-03-03T02:02:01.086Z,101606.39
2023-03-03T02:04:30.739Z,101604.70
2023-03-03T02:07:02.001Z,101601.73
2023-03-03T02:09:35.599Z,101601.06
2023-03-03T02:12:07.189Z,101600.56
2023-03-03T02:14:35.879Z,101600.20
2023-03-03T02:17:04.215Z,101597.82
2023-03-03T02:19:36.096Z,101595.40
2023-03-03T02:22:04.356Z,101596.48
2023-03-03T02:24:45.640Z,101593.01
2023-03-03T02:27:15.351Z,101594.63
2023-03-03T02:29:44.586Z,101588.08
2023-03-03T02:32:13.117Z,101586.98
2023-03-03T02:34:49.308Z,101585.11
2023-03-03T02:37:18.260Z,101584.65
2023-03-03T02:39:46.478Z,101584.99
2023-03-03T02:42:22.046Z,101584.33
2023-03-03T02:44:55.182Z,101586.70
2023-03-03T02:47:24.260Z,101586.27
2023-03-03T02:49:52.469Z,101582.55
2023-03-03T02:52:21.864Z,101580.98
2023-03-03T02:54:50.843Z,101578.16
2023-03-03T02:57:19.598Z,101573.06
2023-03-03T02:59:49.867Z,101571.54
2023-03-03T03:02:19.534Z,101572.21
2023-03-03T03:04:48.061Z,101571.55
2023-03-03T03:07:21.220Z,101569.42
2023-03-03T03:09:51.051Z,101567.00
2023-03-03T03:12:19.414Z,101566.55
2023-03-03T03:14:49.536Z,101563.05
2023-03-03T03:17:18.028Z,101560.91
2023-03-03T03:19:47.513Z,101559.82
2023-03-03T03:22:16.626Z,101557.20
2023-03-03T03:24:45.748Z,101555.42
2023-03-03T03:27:14.278Z,101552.66
2023-03-03T03:29:43.854Z,101555.30
2023-03-03T03:32:12.941Z,101548.95
2023-03-03T03:34:41.213Z,101545.10
2023-03-03T03:37:10.029Z,101540.41
2023-03-03T03:39:58.774Z,101535.23
2023-03-03T03:42:31.255Z,101537.14
2023-03-03T03:44:59.474Z,101534.98
2023-03-03T03:47:28.106Z,101535.07
2023-03-03T03:49:57.061Z,101541.56
2023-03-03T03:52:31.345Z,101536.00
2023-03-03T03:54:59.725Z,101538.56
2023-03-03T03:57:27.915Z,101534.25
2023-03-03T04:00:16.088Z,101531.32
2023-03-03T04:02:50.292Z,101531.10
2023-03-03T04:05:19.053Z,101530.20
2023-03-03T04:07:54.385Z,101527.80
2023-03-03T04:10:23.545Z,101532.30
2023-03-03T04:12:51.956Z,101526.41
2023-03-03T04:15:23.085Z,101526.73
2023-03-03T04:17:51.674Z,101524.82
2023-03-03T04:20:19.928Z,101523.73
2023-03-03T04:22:51.303Z,101524.39
2023-03-03T04:25:19.842Z,101524.17
2023-03-03T04:27:52.201Z,101521.71
2023-03-03T04:30:21.909Z,101522.02
2023-03-03T04:32:53.324Z,101518.70
2023-03-03T04:35:23.968Z,101521.02
2023-03-03T04:37:52.183Z,101521.05
2023-03-03T04:40:21.438Z,101523.05
2023-03-03T04:42:51.158Z,101523.06
2023-03-03T04:45:23.564Z,101519.16
2023-03-03T04:47:52.503Z,101523.98
2023-03-03T04:50:25.065Z,101527.38
2023-03-03T04:52:55.323Z,101526.56
2023-03-03T04:55:23.607Z,101524.54
2023-03-03T04:57:54.518Z,101524.91
2023-03-03T05:00:23.039Z,101525.97
2023-03-03T05:02:51.311Z,101525.55
2023-03-03T05:05:19.669Z,101526.95
2023-03-03T05:07:47.819Z,101527.92
2023-03-03T05:10:15.945Z,101531.27
2023-03-03T05:12:44.286Z,101530.80
2023-03-03T05:15:12.477Z,101528.83
2023-03-03T05:17:40.784Z,101531.27
2023-03-03T05:20:12.632Z,101531.56
2023-03-03T05:22:41.809Z,101529.34
2023-03-03T05:25:11.326Z,101528.16
2023-03-03T05:27:44.009Z,101531.83
2023-03-03T05:30:13.005Z,101533.25
2023-03-03T05:32:46.880Z,101532.71
2023-03-03T05:35:15.207Z,101531.35
2023-03-03T05:37:47.852Z,101530.79
2023-03-03T05:40:16.774Z,101533.21
2023-03-03T05:42:45.576Z,101533.55
2023-03-03T05:45:14.380Z,101533.60
2023-03-03T05:47:42.738Z,101532.33
2023-03-03T05:50:12.352Z,101528.23
2023-03-03T05:52:40.753Z,101531.11
2023-03-03T05:55:11.077Z,101534.11
2023-03-03T05:57:39.186Z,101534.16
2023-03-03T06:00:09.734Z,101534.87
2023-03-03T06:02:42.353Z,101531.23
2023-03-03T06:05:11.742Z,101529.64
2023-03-03T06:07:40.107Z,101531.08
2023-03-03T06:10:11.441Z,101531.46
2023-03-03T06:12:48.072Z,101529.27
2023-03-03T06:15:16.397Z,101525.00
2023-03-03T06:17:44.845Z,101523.83
2023-03-03T06:20:12.983Z,101526.70
2023-03-03T06:22:42.167Z,101528.33
2023-03-03T06:25:12.298Z,101525.07
2023-03-03T06:27:40.786Z,101528.05
2023-03-03T06:30:11.594Z,101528.35
2023-03-03T06:32:40.192Z,101523.00
2023-03-03T06:35:08.448Z,101519.14
2023-03-03T06:37:38.314Z,101522.32
2023-03-03T06:40:07.354Z,101518.81
2023-03-03T06:42:38.904Z,101516.40
2023-03-03T06:45:07.454Z,101515.92
2023-03-03T06:47:35.581Z,101516.43
2023-03-03T06:50:03.859Z,101513.45
2023-03-03T06:52:32.420Z,101512.95
2023-03-03T06:55:01.352Z,101514.83
2023-03-03T06:57:32.376Z,101512.52
2023-03-03T07:00:20.496Z,101513.39
2023-03-03T07:03:22.081Z,101516.42
2023-03-03T07:05:54.528Z,101512.32
2023-03-03T07:08:25.738Z,101512.70
2023-03-03T07:10:55.676Z,101513.10
2023-03-03T07:13:28.948Z,101512.98
2023-03-03T07:15:59.569Z,101504.61
2023-03-03T07:18:36.175Z,101506.13
2023-03-03T07:21:25.141Z,101499.95
2023-03-03T07:23:56.934Z,101497.02
2023-03-03T07:26:33.177Z,101495.87
2023-03-03T07:29:14.514Z,101491.98
2023-03-03T07:31:45.513Z,101485.41
2023-03-03T07:34:38.736Z,101484.88
2023-03-03T07:37:32.315Z,101484.25
2023-03-03T07:40:01.036Z,101478.63
2023-03-03T07:42:41.236Z,101478.99
2023-03-03T07:45:23.920Z,101480.02
2023-03-03T07:48:09.389Z,101476.53
2023-03-03T07:50:37.716Z,101475.02
2023-03-03T07:53:09.979Z,101472.19
2023-03-03T07:55:42.571Z,101468.09
2023-03-03T07:58:11.220Z,101466.67
2023-03-03T08:01:20.060Z,101465.22
2023-03-03T08:03:49.611Z,101470.13
2023-03-03T08:06:27.286Z,101466.34
2023-03-03T08:09:09.616Z,101466.26
2023-03-03T08:12:04.318Z,101467.13
2023-03-03T08:14:38.129Z,101467.88
2023-03-03T08:17:18.363Z,101468.71
2023-03-03T08:19:47.322Z,101466.85
2023-03-03T08:22:20.833Z,101465.83
2023-03-03T08:24:49.230Z,101459.38
2023-03-03T08:27:17.930Z,101455.35
2023-03-03T08:29:48.220Z,101454.59
2023-03-03T08:32:17.305Z,101449.67
2023-03-03T08:34:45.864Z,101450.88
2023-03-03T08:37:19.550Z,101445.14
2023-03-03T08:39:47.704Z,101447.64
2023-03-03T08:42:16.348Z,101444.67
2023-03-03T08:44:45.307Z,101441.89
2023-03-03T08:47:14.041Z,101442.64
2023-03-03T08:49:46.172Z,101440.81
2023-03-03T08:52:17.442Z,101440.63
2023-03-03T08:54:52.420Z,101442.83
2023-03-03T08:57:20.713Z,101442.00
2023-03-03T08:59:49.071Z,101439.79
2023-03-03T09:02:18.048Z,101435.67
2023-03-03T09:04:46.385Z,101437.06
2023-03-03T09:07:14.879Z,101440.39
2023-03-03T09:09:43.138Z,101442.33
2023-03-03T09:12:19.681Z,101438.08
2023-03-03T09:14:48.954Z,101435.48
2023-03-03T09:17:35.948Z,101429.31
2023-03-03T09:20:36.779Z,101428.59
2023-03-03T09:23:36.012Z,101421.10
2023-03-03T09:26:11.904Z,101419.24
2023-03-03T09:28:40.250Z,101418.19
2023-03-03T09:31:21.039Z,101414.41
2023-03-03T09:33:55.485Z,101411.20
2023-03-03T09:36:23.676Z,101408.81
2023-03-03T09:38:55.279Z,101397.02
2023-03-03T09:41:35.978Z,101395.58
2023-03-03T09:44:27.940Z,101391.11
2023-03-03T09:47:03.030Z,101382.52
2023-03-03T09:49:35.615Z,101385.73
2023-03-03T09:52:30.856Z,101384.05
2023-03-03T09:55:25.459Z,101378.89
2023-03-03T09:58:12.495Z,101378.04
2023-03-03T10:01:21.398Z,101375.33
2023-03-03T10:04:10.782Z,101368.02
2023-03-03T10:07:07.366Z,101361.65
2023-03-03T10:09:59.037Z,101358.27
2023-03-03T10:12:42.053Z,101355.61
2023-03-03T10:15:33.424Z,101348.10
2023-03-03T10:18:13.248Z,101346.72
2023-03-03T10:20:51.144Z,101339.20
2023-03-03T10:23:25.667Z,101335.33
2023-03-03T10:26:05.554Z,101330.90
2023-03-03T10:28:43.802Z,101328.17
2023-03-03T10:31:16.797Z,101320.11
2023-03-03T10:34:01.559Z,101319.45
2023-03-03T10:36:39.175Z,101310.33
2023-03-03T10:39:42.838Z,101306.73
2023-03-03T10:42:26.233Z,101303.16
2023-03-03T10:45:13.595Z,101297.64
2023-03-03T10:48:03.127Z,101294.33
2023-03-03T10:50:35.474Z,101293.73
2023-03-03T10:53:41.786Z,101290.29
2023-03-03T10:56:52.830Z,101285.82
2023-03-03T10:59:55.176Z,101284.41
2023-03-03T11:02:23.609Z,101280.64
2023-03-03T11:05:17.159Z,101277.25
2023-03-03T11:07:57.766Z,101270.90
2023-03-03T11:11:03.439Z,101272.08
2023-03-03T11:13:40.808Z,101265.20
2023-03-03T11:16:37.616Z,101262.09
2023-03-03T11:19:35.863Z,101260.06
2023-03-03T11:22:25.923Z,101258.83
2023-03-03T11:25:30.368Z,101257.11
2023-03-03T11:28:00.027Z,101250.47
2023-03-03T11:30:35.985Z,101250.05
2023-03-03T11:33:09.344Z,101249.36
2023-03-03T11:36:13.279Z,101247.80
2023-03-03T11:38:41.664Z,101245.40
2023-03-03T11:41:34.379Z,101242.33
2023-03-03T11:44:05.543Z,101240.07
2023-03-03T11:46:46.202Z,101237.67
2023-03-03T11:49:35.671Z,101231.35
2023-03-03T11:52:12.781Z,101230.16
2023-03-03T11:54:52.797Z,101228.50
2023-03-03T11:57:22.988Z,101224.33
2023-03-03T11:59:54.929Z,101221.94
2023-03-03T12:02:39.565Z,101221.65
2023-03-03T12:05:38.695Z,101221.41
2023-03-03T12:08:16.697Z,101220.86
2023-03-03T12:11:09.398Z,101217.79
2023-03-03T12:13:49.753Z,101214.91
2023-03-03T12:16:21.512Z,101210.91
2023-03-03T12:18:50.627Z,101207.96
2023-03-03T12:21:40.235Z,101209.55
2023-03-03T12:24:26.386Z,101203.24
2023-03-03T12:26:57.988Z,101199.48
2023-03-03T12:29:37.050Z,101192.64
2023-03-03T12:32:28.937Z,101195.09
2023-03-03T12:35:15.173Z,101193.82
2023-03-03T12:37:48.244Z,101194.41
2023-03-03T12:40:26.785Z,101190.55
2023-03-03T12:43:05.956Z,101187.10
2023-03-03T12:46:40.884Z,101183.66
2023-03-03T12:49:09.277Z,101180.92
2023-03-03T12:52:25.973Z,101177.02
2023-03-03T12:55:03.477Z,101175.11
2023-03-03T12:58:13.956Z,101171.88
2023-03-03T13:01:10.398Z,101166.22
2023-03-03T13:03:53.193Z,101163.69
2023-03-03T13:06:23.990Z,101159.58
2023-03-03T13:08:53.839Z,101158.72
2023-03-03T13:11:34.918Z,101155.30
2023-03-03T13:14:52.614Z,101155.14
2023-03-03T13:17:42.750Z,101152.94
2023-03-03T13:20:41.584Z,101152.09
2023-03-03T13:23:38.354Z,101145.38
2023-03-03T13:26:17.781Z,101142.77
2023-03-03T13:29:27.733Z,101138.79
2023-03-03T13:32:14.267Z,101135.56
2023-03-03T13:35:07.188Z,101136.96
2023-03-03T13:37:46.725Z,101133.00
2023-03-03T13:40:20.199Z,101128.33
2023-03-03T13:43:13.917Z,101126.75
2023-03-03T13:46:02.217Z,101125.20
2023-03-03T13:48:45.760Z,101121.42
2023-03-03T13:51:40.526Z,101119.34
2023-03-03T13:54:40.638Z,101117.91
2023-03-03T13:57:24.619Z,101108.27
2023-03-03T14:00:09.182Z,101106.75
2023-03-03T14:03:21.788Z,101100.59
2023-03-03T14:05:56.482Z,101098.88
2023-03-03T14:08:56.081Z,101097.27
2023-03-03T14:11:39.026Z,101096.02
2023-03-03T14:14:21.140Z,101095.66
2023-03-03T14:17:09.466Z,101093.42
2023-03-03T14:19:52.511Z,101094.13
2023-03-03T14:22:51.620Z,101092.06
2023-03-03T14:25:20.651Z,101091.02
2023-03-03T14:27:49.543Z,101091.40
2023-03-03T14:30:54.269Z,101090.95
2023-03-03T14:33:27.381Z,101090.95
2023-03-03T14:35:59.203Z,101086.65
2023-03-03T14:38:31.865Z,101084.35
2023-03-03T14:41:12.579Z,101083.52
2023-03-03T14:43:46.501Z,101084.50
2023-03-03T14:46:29.847Z,101080.88
2023-03-03T14:49:31.899Z,101083.94
2023-03-03T14:52:21.007Z,101076.19
2023-03-03T14:54:51.442Z,101077.22
2023-03-03T14:57:20.785Z,101074.84
2023-03-03T15:00:16.785Z,101072.80
2023-03-03T15:02:52.430Z,101070.41
2023-03-03T15:05:28.103Z,101065.38
2023-03-03T15:08:04.173Z,101067.27
2023-03-03T15:10:35.601Z,101068.80
2023-03-03T15:13:34.784Z,101066.64
2023-03-03T15:16:09.175Z,101067.19
2023-03-03T15:19:00.504Z,101067.31
2023-03-03T15:21:32.446Z,101069.05
2023-03-03T15:24:05.073Z,101066.23
2023-03-03T15:27:02.790Z,101063.50
2023-03-03T15:29:36.250Z,101063.05
2023-03-03T15:32:27.984Z,101066.62
2023-03-03T15:35:23.735Z,101064.90
2023-03-03T15:38:15.352Z,101062.36
2023-03-03T15:41:09.341Z,101067.11
2023-03-03T15:43:38.971Z,101064.17
2023-03-03T15:46:21.702Z,101065.02
2023-03-03T15:49:25.229Z,101063.95
2023-03-03T15:52:06.277Z,101064.29
2023-03-03T15:54:39.875Z,101067.01
2023-03-03T15:57:17.704Z,101067.20
2023-03-03T15:59:59.334Z,101067.35
2023-03-03T16:02:47.526Z,101067.81
2023-03-03T16:05:39.795Z,101069.50
2023-03-03T16:08:09.505Z,101068.89
2023-03-03T16:10:56.335Z,101073.20
2023-03-03T16:13:28.268Z,101073.94
2023-03-03T16:16:12.497Z,101077.02
2023-03-03T16:19:03.389Z,101076.00
2023-03-03T16:21:34.400Z,101077.52
2023-03-03T16:24:34.829Z,101077.80
2023-03-03T16:27:34.541Z,101080.02
2023-03-03T16:30:31.256Z,101083.12
2023-03-03T16:33:15.516Z,101080.94
2023-03-03T16:35:59.128Z,101081.41
2023-03-03T16:38:44.577Z,101082.49
2023-03-03T16:41:14.660Z,101086.95
2023-03-03T16:44:31.309Z,101081.59
2023-03-03T16:47:16.698Z,101082.63
2023-03-03T16:49:48.480Z,101083.48
2023-03-03T16:52:18.119Z,101077.20
2023-03-03T16:54:55.447Z,101077.77
2023-03-03T16:57:51.594Z,101078.53
2023-03-03T17:00:30.426Z,101083.23
2023-03-03T17:03:13.234Z,101085.81
2023-03-03T17:06:08.410Z,101077.94
2023-03-03T17:09:31.856Z,101076.89
2023-03-03T17:12:02.328Z,101077.20
2023-03-03T17:14:52.654Z,101078.73
2023-03-03T17:17:43.682Z,101079.78
2023-03-03T17:20:24.312Z,101076.40
2023-03-03T17:23:02.008Z,101077.96
2023-03-03T17:25:43.091Z,101077.35
2023-03-03T17:28:19.684Z,101079.83
2023-03-03T17:30:57.867Z,101079.17
2023-03-03T17:33:33.672Z,101081.42
2023-03-03T17:36:18.458Z,101083.27
2023-03-03T17:39:03.135Z,101084.94
2023-03-03T17:41:53.319Z,101085.88
2023-03-03T17:44:30.697Z,101086.94
2023-03-03T17:47:05.577Z,101086.59
2023-03-03T17:49:43.972Z,101093.45
2023-03-03T17:52:34.676Z,101089.48
2023-03-03T17:55:06.670Z,101086.18
2023-03-03T17:57:57.655Z,101089.34
2023-03-03T18:00:29.085Z,101089.82
2023-03-03T18:03:06.538Z,101086.77
2023-03-03T18:05:58.646Z,101088.69
2023-03-03T18:08:27.222Z,101086.44
2023-03-03T18:11:04.158Z,101092.28
2023-03-03T18:14:03.710Z,101089.65
2023-03-03T18:16:56.896Z,101086.63
2023-03-03T18:19:37.806Z,101087.05
2023-03-03T18:22:14.315Z,101086.23
2023-03-03T18:24:50.034Z,101088.27
2023-03-03T18:27:24.264Z,101090.33
2023-03-03T18:30:07.809Z,101090.19
2023-03-03T18:32:46.470Z,101093.73
2023-03-03T18:35:38.835Z,101093.79
2023-03-03T18:38:16.109Z,101089.69
2023-03-03T18:40:56.752Z,101086.97
2023-03-03T18:43:41.646Z,101084.98
2023-03-03T18:46:20.489Z,101086.17
2023-03-03T18:48:51.827Z,101082.40
2023-03-03T18:51:35.356Z,101074.48
2023-03-03T18:54:12.746Z,101073.91
2023-03-03T18:56:53.261Z,101069.61
2023-03-03T18:59:31.381Z,101067.98
2023-03-03T19:02:18.261Z,101070.68
2023-03-03T19:05:07.736Z,101069.46
2023-03-03T19:07:39.615Z,101068.49
2023-03-03T19:10:20.081Z,101068.86
2023-03-03T19:12:57.023Z,101072.93
2023-03-03T19:15:36.046Z,101076.23
2023-03-03T19:18:26.143Z,101077.04
2023-03-03T19:21:19.022Z,101080.23
2023-03-03T19:24:00.058Z,101082.22
2023-03-03T19:26:29.310Z,101083.98
2023-03-03T19:29:17.735Z,101083.52
2023-03-03T19:31:56.573Z,101081.02
2023-03-03T19:34:39.746Z,101086.48
2023-03-03T19:37:39.740Z,101085.79
2023-03-03T19:40:13.375Z,101088.46
2023-03-03T19:42:55.853Z,101089.78
2023-03-03T19:45:40.968Z,101085.27
2023-03-03T19:48:49.133Z,101089.41
2023-03-03T19:51:23.347Z,101093.45
2023-03-03T19:54:25.956Z,101092.48
2023-03-03T19:56:55.724Z,101092.20
2023-03-03T19:59:38.074Z,101089.58
2023-03-03T20:02:15.051Z,101093.80
2023-03-03T20:04:57.726Z,101096.52
2023-03-03T20:07:39.074Z,101096.97
2023-03-03T20:10:16.597Z,101094.02
2023-03-03T20:13:00.596Z,101098.26
2023-03-03T20:15:29.457Z,101100.73
2023-03-03T20:18:28.159Z,101098.86
2023-03-03T20:21:02.703Z,101094.65
2023-03-03T20:23:45.306Z,101092.61
2023-03-03T20:26:27.403Z,101088.63
2023-03-03T20:29:33.291Z,101094.34
2023-03-03T20:32:35.437Z,101096.11
2023-03-03T20:35:42.087Z,101094.61
2023-03-03T20:38:21.090Z,101095.08
2023-03-03T20:41:05.539Z,101092.80
2023-03-03T20:43:38.956Z,101087.21
2023-03-03T20:46:23.457Z,101082.49
2023-03-03T20:49:19.735Z,101083.91
2023-03-03T20:52:01.649Z,101082.04
2023-03-03T20:54:37.716Z,101082.38
2023-03-03T20:57:08.985Z,101082.67
2023-03-03T20:59:55.970Z,101084.27
2023-03-03T21:02:30.321Z,101084.27
2023-03-03T21:05:16.182Z,101082.48
2023-03-03T21:08:09.617Z,101085.34
2023-03-03T21:10:37.873Z,101081.76
2023-03-03T21:13:37.206Z,101079.63
2023-03-03T21:16:11.143Z,101085.77
2023-03-03T21:18:40.083Z,101086.13
2023-03-03T21:21:08.328Z,101088.35
2023-03-03T21:23:37.103Z,101090.90
2023-03-03T21:26:05.632Z,101091.02
2023-03-03T21:28:35.116Z,101091.45
2023-03-03T21:31:15.872Z,101096.31
2023-03-03T21:33:54.392Z,101093.30
2023-03-03T21:36:34.836Z,101097.00
2023-03-03T21:39:22.754Z,101097.73
2023-03-03T21:41:57.092Z,101101.86
2023-03-03T21:44:46.876Z,101100.63
2023-03-03T21:47:19.996Z,101102.09
2023-03-03T21:50:00.237Z,101102.59
2023-03-03T21:52:28.345Z,101103.33
2023-03-03T21:54:56.731Z,101109.39
2023-03-03T21:57:26.824Z,101119.42
2023-03-03T21:59:56.136Z,101122.40
2023-03-03T22:02:24.233Z,101122.92
2023-03-03T22:04:52.363Z,101124.59
2023-03-03T22:07:20.527Z,101126.47
2023-03-03T22:09:51.945Z,101129.36
2023-03-03T22:12:20.260Z,101124.54
2023-03-03T22:14:49.536Z,101125.10
2023-03-03T22:17:17.689Z,101127.25
2023-03-03T22:19:45.985Z,101127.88
2023-03-03T22:22:14.303Z,101126.83
2023-03-03T22:24:42.633Z,101125.76
2023-03-03T22:27:16.587Z,101126.94
2023-03-03T22:29:45.236Z,101136.50
2023-03-03T22:32:13.375Z,101135.62
2023-03-03T22:34:42.485Z,101139.09
2023-03-03T22:37:11.252Z,101142.20
2023-03-03T22:39:39.358Z,101145.82
2023-03-03T22:42:07.704Z,101148.09
2023-03-03T22:44:36.198Z,101147.95
2023-03-03T22:47:04.315Z,101151.44
2023-03-03T22:49:32.498Z,101153.96
2023-03-03T22:52:02.762Z,101155.30
2023-03-03T22:54:31.865Z,101154.33
2023-03-03T22:57:00.543Z,101151.67
2023-03-03T22:59:29.308Z,101147.98
2023-03-03T23:01:57.629Z,101152.77
2023-03-03T23:04:27.368Z,101151.52
2023-03-03T23:07:01.345Z,101155.11
2023-03-03T23:09:33.526Z,101160.06
2023-03-03T23:12:07.209Z,101157.56
2023-03-03T23:14:35.513Z,101154.96
2023-03-03T23:17:04.172Z,101154.36
2023-03-03T23:19:37.458Z,101155.23
2023-03-03T23:22:06.167Z,101159.63
2023-03-03T23:24:34.347Z,101160.74
2023-03-03T23:27:08.938Z,101164.88
2023-03-03T23:29:38.182Z,101163.08
2023-03-03T23:32:07.359Z,101164.47
2023-03-03T23:34:37.349Z,101162.91
2023-03-03T23:37:06.541Z,101171.14
2023-03-03T23:39:36.485Z,101165.97
2023-03-03T23:42:04.944Z,101171.20
2023-03-03T23:44:33.093Z,101173.44
2023-03-03T23:47:07.479Z,101175.83
2023-03-03T23:49:36.675Z,101173.13
2023-03-03T23:52:05.396Z,101167.95
2023-03-03T23:54:37.948Z,101163.97
2023-03-03T23:57:08.237Z,101162.84
2023-03-03T23:59:36.647Z,101155.09
